sensor_id;sensor_type;location;lat;lon;timestamp;temperature;humidity
64888;DHT22;51386;53.082;8.816;2022-12-18T00:01:22;-3.50;76.20
64888;DHT22;51386;53.082;8.816;2022-12-18T00:03:51;-3.50;76.30
64888;DHT22;51386;53.082;8.816;2022-12-18T00:06:20;-3.50;76.40
64888;DHT22;51386;53.082;8.816;2022-12-18T00:08:48;-3.50;76.40
64888;DHT22;51386;53.082;8.816;2022-12-18T00:11:17;-3.50;76.50
64888;DHT22;51386;53.082;8.816;2022-12-18T00:13:45;-3.50;76.50
64888;DHT22;51386;53.082;8.816;2022-12-18T00:16:17;-3.50;76.50
64888;DHT22;51386;53.082;8.816;2022-12-18T00:18:47;-3.50;76.40
64888;DHT22;51386;53.082;8.816;2022-12-18T00:21:15;-3.50;76.30
64888;DHT22;51386;53.082;8.816;2022-12-18T00:23:44;-3.50;76.40
64888;DHT22;51386;53.082;8.816;2022-12-18T00:26:12;-3.40;77.40
64888;DHT22;51386;53.082;8.816;2022-12-18T00:28:41;-3.40;77.10
64888;DHT22;51386;53.082;8.816;2022-12-18T00:31:11;-3.40;76.50
64888;DHT22;51386;53.082;8.816;2022-12-18T00:33:41;-3.30;76.20
64888;DHT22;51386;53.082;8.816;2022-12-18T00:36:11;-3.30;76.00
64888;DHT22;51386;53.082;8.816;2022-12-18T00:38:39;-3.30;75.80
64888;DHT22;51386;53.082;8.816;2022-12-18T00:41:10;-3.30;75.80
64888;DHT22;51386;53.082;8.816;2022-12-18T00:43:39;-3.30;76.30
64888;DHT22;51386;53.082;8.816;2022-12-18T00:46:07;-3.30;76.40
64888;DHT22;51386;53.082;8.816;2022-12-18T00:48:35;-3.20;76.70
64888;DHT22;51386;53.082;8.816;2022-12-18T00:51:03;-3.20;76.10
64888;DHT22;51386;53.082;8.816;2022-12-18T00:53:30;-3.20;75.50
64888;DHT22;51386;53.082;8.816;2022-12-18T00:55:57;-3.20;75.00
64888;DHT22;51386;53.082;8.816;2022-12-18T00:58:24;-3.20;74.90
64888;DHT22;51386;53.082;8.816;2022-12-18T01:00:51;-3.20;74.80
64888;DHT22;51386;53.082;8.816;2022-12-18T01:03:19;-3.20;75.10
64888;DHT22;51386;53.082;8.816;2022-12-18T01:05:46;-3.20;75.20
64888;DHT22;51386;53.082;8.816;2022-12-18T01:08:14;-3.20;75.00
64888;DHT22;51386;53.082;8.816;2022-12-18T01:10:42;-3.30;74.90
64888;DHT22;51386;53.082;8.816;2022-12-18T01:13:09;-3.30;74.90
64888;DHT22;51386;53.082;8.816;2022-12-18T01:15:36;-3.30;75.00
64888;DHT22;51386;53.082;8.816;2022-12-18T01:18:03;-3.30;75.20
64888;DHT22;51386;53.082;8.816;2022-12-18T01:20:30;-3.30;75.10
64888;DHT22;51386;53.082;8.816;2022-12-18T01:22:57;-3.30;75.10
64888;DHT22;51386;53.082;8.816;2022-12-18T01:25:26;-3.20;75.10
64888;DHT22;51386;53.082;8.816;2022-12-18T01:27:52;-3.30;74.90
64888;DHT22;51386;53.082;8.816;2022-12-18T01:30:19;-3.30;74.70
64888;DHT22;51386;53.082;8.816;2022-12-18T01:32:46;-3.30;74.60
64888;DHT22;51386;53.082;8.816;2022-12-18T01:35:14;-3.30;74.80
64888;DHT22;51386;53.082;8.816;2022-12-18T01:37:41;-3.30;74.90
64888;DHT22;51386;53.082;8.816;2022-12-18T01:40:09;-3.30;75.00
64888;DHT22;51386;53.082;8.816;2022-12-18T01:42:37;-3.30;75.00
64888;DHT22;51386;53.082;8.816;2022-12-18T01:45:24;-3.30;75.20
64888;DHT22;51386;53.082;8.816;2022-12-18T01:47:55;-3.30;75.40
64888;DHT22;51386;53.082;8.816;2022-12-18T01:50:28;-3.30;75.60
64888;DHT22;51386;53.082;8.816;2022-12-18T01:53:02;-3.20;75.40
64888;DHT22;51386;53.082;8.816;2022-12-18T01:55:36;-3.20;75.40
64888;DHT22;51386;53.082;8.816;2022-12-18T01:58:09;-3.20;75.00
64888;DHT22;51386;53.082;8.816;2022-12-18T02:00:36;-3.20;75.00
64888;DHT22;51386;53.082;8.816;2022-12-18T02:03:03;-3.20;74.80
64888;DHT22;51386;53.082;8.816;2022-12-18T02:05:40;-3.20;74.80
64888;DHT22;51386;53.082;8.816;2022-12-18T02:08:16;-3.20;75.20
64888;DHT22;51386;53.082;8.816;2022-12-18T02:10:53;-3.10;75.40
64888;DHT22;51386;53.082;8.816;2022-12-18T02:13:32;-3.10;75.00
64888;DHT22;51386;53.082;8.816;2022-12-18T02:16:16;-3.10;74.60
64888;DHT22;51386;53.082;8.816;2022-12-18T02:18:55;-3.10;74.10
64888;DHT22;51386;53.082;8.816;2022-12-18T02:21:30;-3.10;73.90
64888;DHT22;51386;53.082;8.816;2022-12-18T02:24:17;-3.10;73.90
64888;DHT22;51386;53.082;8.816;2022-12-18T02:26:56;-3.10;73.80
64888;DHT22;51386;53.082;8.816;2022-12-18T02:29:27;-3.20;73.90
64888;DHT22;51386;53.082;8.816;2022-12-18T02:31:59;-3.20;74.10
64888;DHT22;51386;53.082;8.816;2022-12-18T02:34:31;-3.20;74.50
64888;DHT22;51386;53.082;8.816;2022-12-18T02:37:05;-3.20;74.40
64888;DHT22;51386;53.082;8.816;2022-12-18T02:39:38;-3.10;75.10
64888;DHT22;51386;53.082;8.816;2022-12-18T02:42:10;-3.10;75.10
64888;DHT22;51386;53.082;8.816;2022-12-18T02:44:42;-3.00;74.60
64888;DHT22;51386;53.082;8.816;2022-12-18T02:47:12;-3.00;73.60
64888;DHT22;51386;53.082;8.816;2022-12-18T02:49:48;-3.10;73.00
64888;DHT22;51386;53.082;8.816;2022-12-18T02:52:28;-3.10;73.10
64888;DHT22;51386;53.082;8.816;2022-12-18T02:55:12;-3.10;73.40
64888;DHT22;51386;53.082;8.816;2022-12-18T02:57:53;-3.10;73.50
64888;DHT22;51386;53.082;8.816;2022-12-18T03:00:24;-3.20;73.40
64888;DHT22;51386;53.082;8.816;2022-12-18T03:02:59;-3.20;73.40
64888;DHT22;51386;53.082;8.816;2022-12-18T03:05:34;-3.20;73.60
64888;DHT22;51386;53.082;8.816;2022-12-18T03:08:08;-3.30;73.40
64888;DHT22;51386;53.082;8.816;2022-12-18T03:10:42;-3.30;73.50
64888;DHT22;51386;53.082;8.816;2022-12-18T03:13:21;-3.30;73.60
64888;DHT22;51386;53.082;8.816;2022-12-18T03:15:56;-3.30;73.70
64888;DHT22;51386;53.082;8.816;2022-12-18T03:18:30;-3.30;73.80
64888;DHT22;51386;53.082;8.816;2022-12-18T03:21:05;-3.40;74.00
64888;DHT22;51386;53.082;8.816;2022-12-18T03:23:39;-3.40;74.10
64888;DHT22;51386;53.082;8.816;2022-12-18T03:26:13;-3.40;74.00
64888;DHT22;51386;53.082;8.816;2022-12-18T03:28:48;-3.40;73.90
64888;DHT22;51386;53.082;8.816;2022-12-18T03:31:18;-3.40;74.00
64888;DHT22;51386;53.082;8.816;2022-12-18T03:33:52;-3.40;74.00
64888;DHT22;51386;53.082;8.816;2022-12-18T03:36:21;-3.40;74.00
64888;DHT22;51386;53.082;8.816;2022-12-18T03:38:50;-3.40;74.10
64888;DHT22;51386;53.082;8.816;2022-12-18T03:41:22;-3.40;74.30
64888;DHT22;51386;53.082;8.816;2022-12-18T03:44:03;-3.40;74.60
64888;DHT22;51386;53.082;8.816;2022-12-18T03:46:44;-3.40;74.60
64888;DHT22;51386;53.082;8.816;2022-12-18T03:49:23;-3.30;75.00
64888;DHT22;51386;53.082;8.816;2022-12-18T03:51:58;-3.20;75.40
64888;DHT22;51386;53.082;8.816;2022-12-18T03:54:30;-3.20;74.60
64888;DHT22;51386;53.082;8.816;2022-12-18T03:57:03;-3.10;73.80
64888;DHT22;51386;53.082;8.816;2022-12-18T03:59:37;-3.10;73.50
64888;DHT22;51386;53.082;8.816;2022-12-18T04:02:07;-3.10;73.00
64888;DHT22;51386;53.082;8.816;2022-12-18T04:04:37;-3.10;72.80
64888;DHT22;51386;53.082;8.816;2022-12-18T04:07:07;-3.20;72.90
64888;DHT22;51386;53.082;8.816;2022-12-18T04:09:36;-3.20;73.70
64888;DHT22;51386;53.082;8.816;2022-12-18T04:12:05;-3.30;72.90
64888;DHT22;51386;53.082;8.816;2022-12-18T04:14:33;-3.30;73.30
64888;DHT22;51386;53.082;8.816;2022-12-18T04:17:03;-3.30;74.40
64888;DHT22;51386;53.082;8.816;2022-12-18T04:19:30;-3.30;73.70
64888;DHT22;51386;53.082;8.816;2022-12-18T04:21:57;-3.20;73.60
64888;DHT22;51386;53.082;8.816;2022-12-18T04:24:24;-3.30;73.30
64888;DHT22;51386;53.082;8.816;2022-12-18T04:26:51;-3.30;73.40
64888;DHT22;51386;53.082;8.816;2022-12-18T04:29:18;-3.30;73.30
64888;DHT22;51386;53.082;8.816;2022-12-18T04:31:45;-3.30;73.30
64888;DHT22;51386;53.082;8.816;2022-12-18T04:34:14;-3.30;73.30
64888;DHT22;51386;53.082;8.816;2022-12-18T04:36:40;-3.30;73.10
64888;DHT22;51386;53.082;8.816;2022-12-18T04:39:08;-3.30;72.90
64888;DHT22;51386;53.082;8.816;2022-12-18T04:41:35;-3.40;73.10
64888;DHT22;51386;53.082;8.816;2022-12-18T04:44:01;-3.40;73.10
64888;DHT22;51386;53.082;8.816;2022-12-18T04:46:29;-3.50;73.00
64888;DHT22;51386;53.082;8.816;2022-12-18T04:48:56;-3.40;73.80
64888;DHT22;51386;53.082;8.816;2022-12-18T04:51:24;-3.40;73.80
64888;DHT22;51386;53.082;8.816;2022-12-18T04:53:52;-3.40;73.40
64888;DHT22;51386;53.082;8.816;2022-12-18T04:56:20;-3.40;73.30
64888;DHT22;51386;53.082;8.816;2022-12-18T04:58:47;-3.50;73.00
64888;DHT22;51386;53.082;8.816;2022-12-18T05:01:15;-3.50;73.00
64888;DHT22;51386;53.082;8.816;2022-12-18T05:03:43;-3.50;73.20
64888;DHT22;51386;53.082;8.816;2022-12-18T05:06:11;-3.50;73.20
64888;DHT22;51386;53.082;8.816;2022-12-18T05:08:40;-3.50;73.30
64888;DHT22;51386;53.082;8.816;2022-12-18T05:11:09;-3.60;73.10
64888;DHT22;51386;53.082;8.816;2022-12-18T05:13:38;-3.60;73.10
64888;DHT22;51386;53.082;8.816;2022-12-18T05:16:06;-3.60;73.30
64888;DHT22;51386;53.082;8.816;2022-12-18T05:18:34;-3.60;73.50
64888;DHT22;51386;53.082;8.816;2022-12-18T05:21:02;-3.60;73.30
64888;DHT22;51386;53.082;8.816;2022-12-18T05:23:29;-3.60;73.20
64888;DHT22;51386;53.082;8.816;2022-12-18T05:25:59;-3.60;73.10
64888;DHT22;51386;53.082;8.816;2022-12-18T05:28:30;-3.60;73.10
64888;DHT22;51386;53.082;8.816;2022-12-18T05:31:00;-3.60;73.30
64888;DHT22;51386;53.082;8.816;2022-12-18T05:33:31;-3.60;73.50
64888;DHT22;51386;53.082;8.816;2022-12-18T05:36:01;-3.60;73.90
64888;DHT22;51386;53.082;8.816;2022-12-18T05:38:31;-3.60;73.30
64888;DHT22;51386;53.082;8.816;2022-12-18T05:41:00;-3.60;73.80
64888;DHT22;51386;53.082;8.816;2022-12-18T05:43:29;-3.60;74.00
64888;DHT22;51386;53.082;8.816;2022-12-18T05:45:56;-3.50;74.10
64888;DHT22;51386;53.082;8.816;2022-12-18T05:48:24;-3.50;73.80
64888;DHT22;51386;53.082;8.816;2022-12-18T05:50:51;-3.50;73.30
64888;DHT22;51386;53.082;8.816;2022-12-18T05:53:19;-3.50;73.10
64888;DHT22;51386;53.082;8.816;2022-12-18T05:55:47;-3.50;72.90
64888;DHT22;51386;53.082;8.816;2022-12-18T05:58:15;-3.50;73.20
64888;DHT22;51386;53.082;8.816;2022-12-18T06:00:44;-3.40;73.30
64888;DHT22;51386;53.082;8.816;2022-12-18T06:03:13;-3.40;73.10
64888;DHT22;51386;53.082;8.816;2022-12-18T06:05:42;-3.40;72.60
64888;DHT22;51386;53.082;8.816;2022-12-18T06:08:11;-3.40;72.50
64888;DHT22;51386;53.082;8.816;2022-12-18T06:10:39;-3.40;72.70
64888;DHT22;51386;53.082;8.816;2022-12-18T06:13:07;-3.50;72.10
64888;DHT22;51386;53.082;8.816;2022-12-18T06:15:37;-3.50;71.90
64888;DHT22;51386;53.082;8.816;2022-12-18T06:18:04;-3.50;71.60
64888;DHT22;51386;53.082;8.816;2022-12-18T06:20:31;-3.50;71.70
64888;DHT22;51386;53.082;8.816;2022-12-18T06:22:59;-3.60;71.70
64888;DHT22;51386;53.082;8.816;2022-12-18T06:25:26;-3.70;71.70
64888;DHT22;51386;53.082;8.816;2022-12-18T06:27:53;-3.70;71.90
64888;DHT22;51386;53.082;8.816;2022-12-18T06:30:20;-3.80;71.90
64888;DHT22;51386;53.082;8.816;2022-12-18T06:32:50;-3.80;72.20
64888;DHT22;51386;53.082;8.816;2022-12-18T06:35:22;-3.90;72.30
64888;DHT22;51386;53.082;8.816;2022-12-18T06:37:49;-3.90;72.50
64888;DHT22;51386;53.082;8.816;2022-12-18T06:40:18;-3.90;72.70
64888;DHT22;51386;53.082;8.816;2022-12-18T06:42:45;-3.90;73.00
64888;DHT22;51386;53.082;8.816;2022-12-18T06:45:12;-3.90;73.30
64888;DHT22;51386;53.082;8.816;2022-12-18T06:47:39;-3.90;73.40
64888;DHT22;51386;53.082;8.816;2022-12-18T06:50:07;-3.90;73.40
64888;DHT22;51386;53.082;8.816;2022-12-18T06:52:34;-3.90;73.20
64888;DHT22;51386;53.082;8.816;2022-12-18T06:55:02;-3.90;73.10
64888;DHT22;51386;53.082;8.816;2022-12-18T06:57:29;-3.90;73.20
64888;DHT22;51386;53.082;8.816;2022-12-18T06:59:56;-3.90;72.90
64888;DHT22;51386;53.082;8.816;2022-12-18T07:02:23;-3.90;72.80
64888;DHT22;51386;53.082;8.816;2022-12-18T07:04:50;-3.90;72.80
64888;DHT22;51386;53.082;8.816;2022-12-18T07:07:18;-3.90;72.90
64888;DHT22;51386;53.082;8.816;2022-12-18T07:09:45;-3.90;73.00
64888;DHT22;51386;53.082;8.816;2022-12-18T07:12:12;-3.90;72.90
64888;DHT22;51386;53.082;8.816;2022-12-18T07:14:39;-3.90;72.80
64888;DHT22;51386;53.082;8.816;2022-12-18T07:17:06;-3.90;72.70
64888;DHT22;51386;53.082;8.816;2022-12-18T07:19:34;-3.90;72.80
64888;DHT22;51386;53.082;8.816;2022-12-18T07:22:01;-4.00;72.90
64888;DHT22;51386;53.082;8.816;2022-12-18T07:24:29;-4.00;73.00
64888;DHT22;51386;53.082;8.816;2022-12-18T07:26:56;-4.00;73.00
64888;DHT22;51386;53.082;8.816;2022-12-18T07:29:24;-4.00;73.10
64888;DHT22;51386;53.082;8.816;2022-12-18T07:31:51;-4.00;73.40
64888;DHT22;51386;53.082;8.816;2022-12-18T07:34:18;-4.00;73.40
64888;DHT22;51386;53.082;8.816;2022-12-18T07:36:45;-4.00;73.60
64888;DHT22;51386;53.082;8.816;2022-12-18T07:39:12;-4.00;73.40
64888;DHT22;51386;53.082;8.816;2022-12-18T07:41:40;-4.00;73.90
64888;DHT22;51386;53.082;8.816;2022-12-18T07:44:13;-4.00;73.50
64888;DHT22;51386;53.082;8.816;2022-12-18T07:46:40;-3.90;73.20
64888;DHT22;51386;53.082;8.816;2022-12-18T07:49:07;-3.90;73.00
64888;DHT22;51386;53.082;8.816;2022-12-18T07:51:34;-3.90;73.30
64888;DHT22;51386;53.082;8.816;2022-12-18T07:54:01;-3.80;73.30
64888;DHT22;51386;53.082;8.816;2022-12-18T07:56:28;-3.80;72.80
64888;DHT22;51386;53.082;8.816;2022-12-18T07:58:58;-3.80;72.00
64888;DHT22;51386;53.082;8.816;2022-12-18T08:01:26;-3.80;72.10
64888;DHT22;51386;53.082;8.816;2022-12-18T08:03:54;-3.80;72.30
64888;DHT22;51386;53.082;8.816;2022-12-18T08:06:21;-3.80;72.70
64888;DHT22;51386;53.082;8.816;2022-12-18T08:08:51;-3.70;72.30
64888;DHT22;51386;53.082;8.816;2022-12-18T08:11:19;-3.70;71.90
64888;DHT22;51386;53.082;8.816;2022-12-18T08:13:47;-3.70;72.00
64888;DHT22;51386;53.082;8.816;2022-12-18T08:16:16;-3.70;72.10
64888;DHT22;51386;53.082;8.816;2022-12-18T08:18:45;-3.70;72.10
64888;DHT22;51386;53.082;8.816;2022-12-18T08:21:15;-3.60;72.20
64888;DHT22;51386;53.082;8.816;2022-12-18T08:23:46;-3.70;71.80
64888;DHT22;51386;53.082;8.816;2022-12-18T08:26:14;-3.60;71.50
64888;DHT22;51386;53.082;8.816;2022-12-18T08:28:42;-3.60;71.90
64888;DHT22;51386;53.082;8.816;2022-12-18T08:31:10;-3.50;72.00
64888;DHT22;51386;53.082;8.816;2022-12-18T08:33:40;-3.50;72.10
64888;DHT22;51386;53.082;8.816;2022-12-18T08:36:10;-3.40;72.40
64888;DHT22;51386;53.082;8.816;2022-12-18T08:38:37;-3.40;71.60
64888;DHT22;51386;53.082;8.816;2022-12-18T08:41:06;-3.30;71.20
64888;DHT22;51386;53.082;8.816;2022-12-18T08:43:34;-3.30;71.00
64888;DHT22;51386;53.082;8.816;2022-12-18T08:46:21;-3.30;71.10
64888;DHT22;51386;53.082;8.816;2022-12-18T08:48:52;-3.30;70.90
64888;DHT22;51386;53.082;8.816;2022-12-18T08:51:21;-3.30;70.80
64888;DHT22;51386;53.082;8.816;2022-12-18T08:53:48;-3.30;70.70
64888;DHT22;51386;53.082;8.816;2022-12-18T08:56:15;-3.30;70.90
64888;DHT22;51386;53.082;8.816;2022-12-18T08:58:43;-3.30;71.10
64888;DHT22;51386;53.082;8.816;2022-12-18T09:01:11;-3.30;71.40
64888;DHT22;51386;53.082;8.816;2022-12-18T09:03:39;-3.30;72.40
64888;DHT22;51386;53.082;8.816;2022-12-18T09:06:08;-3.30;72.10
64888;DHT22;51386;53.082;8.816;2022-12-18T09:08:39;-3.20;72.00
64888;DHT22;51386;53.082;8.816;2022-12-18T09:11:12;-3.10;71.80
64888;DHT22;51386;53.082;8.816;2022-12-18T09:13:45;-3.10;71.60
64888;DHT22;51386;53.082;8.816;2022-12-18T09:16:12;-3.00;71.70
64888;DHT22;51386;53.082;8.816;2022-12-18T09:18:39;-2.90;72.00
64888;DHT22;51386;53.082;8.816;2022-12-18T09:21:09;-2.90;71.80
64888;DHT22;51386;53.082;8.816;2022-12-18T09:23:38;-2.80;71.90
64888;DHT22;51386;53.082;8.816;2022-12-18T09:26:05;-2.70;71.90
64888;DHT22;51386;53.082;8.816;2022-12-18T09:28:32;-2.70;71.80
64888;DHT22;51386;53.082;8.816;2022-12-18T09:31:05;-2.60;71.90
64888;DHT22;51386;53.082;8.816;2022-12-18T09:33:34;-2.50;71.90
64888;DHT22;51386;53.082;8.816;2022-12-18T09:36:04;-2.40;71.80
64888;DHT22;51386;53.082;8.816;2022-12-18T09:38:34;-2.40;71.90
64888;DHT22;51386;53.082;8.816;2022-12-18T09:41:05;-2.30;71.70
64888;DHT22;51386;53.082;8.816;2022-12-18T09:43:45;-2.20;71.20
64888;DHT22;51386;53.082;8.816;2022-12-18T09:46:19;-2.10;70.90
64888;DHT22;51386;53.082;8.816;2022-12-18T09:48:59;-2.00;70.30
64888;DHT22;51386;53.082;8.816;2022-12-18T09:51:35;-1.90;70.20
64888;DHT22;51386;53.082;8.816;2022-12-18T09:54:13;-1.80;70.40
64888;DHT22;51386;53.082;8.816;2022-12-18T09:56:44;-1.80;70.30
64888;DHT22;51386;53.082;8.816;2022-12-18T09:59:19;-1.70;70.20
64888;DHT22;51386;53.082;8.816;2022-12-18T10:01:50;-1.60;70.40
64888;DHT22;51386;53.082;8.816;2022-12-18T10:04:18;-1.60;69.20
64888;DHT22;51386;53.082;8.816;2022-12-18T10:06:49;-1.50;69.30
64888;DHT22;51386;53.082;8.816;2022-12-18T10:09:28;-1.50;69.30
64888;DHT22;51386;53.082;8.816;2022-12-18T10:12:09;-1.50;69.30
64888;DHT22;51386;53.082;8.816;2022-12-18T10:14:46;-1.40;68.90
64888;DHT22;51386;53.082;8.816;2022-12-18T10:17:26;-1.40;68.80
64888;DHT22;51386;53.082;8.816;2022-12-18T10:20:09;-1.30;68.60
64888;DHT22;51386;53.082;8.816;2022-12-18T10:22:47;-1.30;68.70
64888;DHT22;51386;53.082;8.816;2022-12-18T10:25:24;-1.40;68.50
64888;DHT22;51386;53.082;8.816;2022-12-18T10:27:58;-1.30;68.80
64888;DHT22;51386;53.082;8.816;2022-12-18T10:30:34;-1.30;69.00
64888;DHT22;51386;53.082;8.816;2022-12-18T10:33:01;-1.40;68.90
64888;DHT22;51386;53.082;8.816;2022-12-18T10:35:29;-1.30;69.20
64888;DHT22;51386;53.082;8.816;2022-12-18T10:38:04;-1.30;69.30
64888;DHT22;51386;53.082;8.816;2022-12-18T10:40:48;-1.30;69.30
64888;DHT22;51386;53.082;8.816;2022-12-18T10:43:21;-1.30;69.30
64888;DHT22;51386;53.082;8.816;2022-12-18T10:46:14;-1.20;69.20
64888;DHT22;51386;53.082;8.816;2022-12-18T10:48:53;-1.20;69.30
64888;DHT22;51386;53.082;8.816;2022-12-18T10:51:24;-1.20;69.30
64888;DHT22;51386;53.082;8.816;2022-12-18T10:53:59;-1.20;69.50
64888;DHT22;51386;53.082;8.816;2022-12-18T10:56:33;-1.20;69.60
64888;DHT22;51386;53.082;8.816;2022-12-18T10:59:03;-1.20;69.70
64888;DHT22;51386;53.082;8.816;2022-12-18T11:01:46;-1.20;69.80
64888;DHT22;51386;53.082;8.816;2022-12-18T11:04:19;-1.20;69.80
64888;DHT22;51386;53.082;8.816;2022-12-18T11:06:56;-1.20;69.90
64888;DHT22;51386;53.082;8.816;2022-12-18T11:09:26;-1.20;70.10
64888;DHT22;51386;53.082;8.816;2022-12-18T11:11:57;-1.20;70.20
64888;DHT22;51386;53.082;8.816;2022-12-18T11:14:28;-1.20;70.30
64888;DHT22;51386;53.082;8.816;2022-12-18T11:16:59;-1.20;70.30
64888;DHT22;51386;53.082;8.816;2022-12-18T11:19:52;-1.10;70.50
64888;DHT22;51386;53.082;8.816;2022-12-18T11:22:25;-1.10;70.70
64888;DHT22;51386;53.082;8.816;2022-12-18T11:24:56;-1.00;70.80
64888;DHT22;51386;53.082;8.816;2022-12-18T11:27:52;-1.00;70.70
64888;DHT22;51386;53.082;8.816;2022-12-18T11:30:24;-0.90;70.70
64888;DHT22;51386;53.082;8.816;2022-12-18T11:32:56;-0.80;70.70
64888;DHT22;51386;53.082;8.816;2022-12-18T11:35:37;-0.70;70.50
64888;DHT22;51386;53.082;8.816;2022-12-18T11:38:18;-0.70;70.30
64888;DHT22;51386;53.082;8.816;2022-12-18T11:40:55;-0.40;71.00
64888;DHT22;51386;53.082;8.816;2022-12-18T11:43:29;0.20;70.70
64888;DHT22;51386;53.082;8.816;2022-12-18T11:46:05;0.70;68.70
64888;DHT22;51386;53.082;8.816;2022-12-18T11:48:44;1.20;66.50
64888;DHT22;51386;53.082;8.816;2022-12-18T11:51:24;1.80;65.50
64888;DHT22;51386;53.082;8.816;2022-12-18T11:53:56;2.30;63.60
64888;DHT22;51386;53.082;8.816;2022-12-18T11:56:29;2.60;61.50
64888;DHT22;51386;53.082;8.816;2022-12-18T11:59:08;2.90;60.10
64888;DHT22;51386;53.082;8.816;2022-12-18T12:01:48;2.90;59.20
64888;DHT22;51386;53.082;8.816;2022-12-18T12:04:44;2.80;58.80
64888;DHT22;51386;53.082;8.816;2022-12-18T12:07:26;2.60;59.10
64888;DHT22;51386;53.082;8.816;2022-12-18T12:10:13;2.50;59.50
64888;DHT22;51386;53.082;8.816;2022-12-18T12:13:00;2.40;60.10
64888;DHT22;51386;53.082;8.816;2022-12-18T12:15:46;2.30;60.70
64888;DHT22;51386;53.082;8.816;2022-12-18T12:18:31;2.20;61.30
64888;DHT22;51386;53.082;8.816;2022-12-18T12:21:15;2.00;61.50
64888;DHT22;51386;53.082;8.816;2022-12-18T12:23:54;1.90;62.00
64888;DHT22;51386;53.082;8.816;2022-12-18T12:26:33;1.80;62.30
64888;DHT22;51386;53.082;8.816;2022-12-18T12:29:18;1.70;62.90
64888;DHT22;51386;53.082;8.816;2022-12-18T12:32:05;1.60;63.40
64888;DHT22;51386;53.082;8.816;2022-12-18T12:34:50;1.50;63.80
64888;DHT22;51386;53.082;8.816;2022-12-18T12:37:41;1.40;64.00
64888;DHT22;51386;53.082;8.816;2022-12-18T12:40:19;1.30;64.50
64888;DHT22;51386;53.082;8.816;2022-12-18T12:43:21;1.30;65.00
64888;DHT22;51386;53.082;8.816;2022-12-18T12:45:55;1.10;65.50
64888;DHT22;51386;53.082;8.816;2022-12-18T12:48:34;1.00;65.80
64888;DHT22;51386;53.082;8.816;2022-12-18T12:51:12;1.00;66.30
64888;DHT22;51386;53.082;8.816;2022-12-18T12:53:43;1.00;66.60
64888;DHT22;51386;53.082;8.816;2022-12-18T12:56:13;0.90;66.80
64888;DHT22;51386;53.082;8.816;2022-12-18T12:58:54;0.90;67.00
64888;DHT22;51386;53.082;8.816;2022-12-18T13:01:34;0.80;67.30
64888;DHT22;51386;53.082;8.816;2022-12-18T13:04:20;0.80;67.50
64888;DHT22;51386;53.082;8.816;2022-12-18T13:06:58;0.80;67.80
64888;DHT22;51386;53.082;8.816;2022-12-18T13:09:32;0.80;67.90
64888;DHT22;51386;53.082;8.816;2022-12-18T13:12:08;0.70;68.10
64888;DHT22;51386;53.082;8.816;2022-12-18T13:15:21;0.60;68.20
64888;DHT22;51386;53.082;8.816;2022-12-18T13:18:04;0.60;68.40
64888;DHT22;51386;53.082;8.816;2022-12-18T13:20:40;0.60;68.50
64888;DHT22;51386;53.082;8.816;2022-12-18T13:23:33;0.60;68.70
64888;DHT22;51386;53.082;8.816;2022-12-18T13:26:28;0.60;68.60
64888;DHT22;51386;53.082;8.816;2022-12-18T13:28:59;0.60;68.60
64888;DHT22;51386;53.082;8.816;2022-12-18T13:31:59;0.60;68.60
64888;DHT22;51386;53.082;8.816;2022-12-18T13:34:28;0.60;68.50
64888;DHT22;51386;53.082;8.816;2022-12-18T13:43:32;0.60;68.50
64888;DHT22;51386;53.082;8.816;2022-12-18T13:48:52;0.50;68.60
64888;DHT22;51386;53.082;8.816;2022-12-18T13:51:23;0.60;68.70
64888;DHT22;51386;53.082;8.816;2022-12-18T13:53:54;0.50;68.80
64888;DHT22;51386;53.082;8.816;2022-12-18T13:56:26;0.50;69.70
64888;DHT22;51386;53.082;8.816;2022-12-18T13:59:14;0.40;69.10
64888;DHT22;51386;53.082;8.816;2022-12-18T14:01:50;0.50;69.30
64888;DHT22;51386;53.082;8.816;2022-12-18T14:04:24;0.50;69.10
64888;DHT22;51386;53.082;8.816;2022-12-18T14:06:56;0.50;69.10
64888;DHT22;51386;53.082;8.816;2022-12-18T14:09:29;0.50;69.20
64888;DHT22;51386;53.082;8.816;2022-12-18T14:12:50;0.50;69.00
64888;DHT22;51386;53.082;8.816;2022-12-18T14:15:31;0.50;68.80
64888;DHT22;51386;53.082;8.816;2022-12-18T14:18:03;0.50;68.60
64888;DHT22;51386;53.082;8.816;2022-12-18T14:20:47;0.50;68.70
64888;DHT22;51386;53.082;8.816;2022-12-18T14:23:28;0.60;68.80
64888;DHT22;51386;53.082;8.816;2022-12-18T14:25:58;0.60;68.70
64888;DHT22;51386;53.082;8.816;2022-12-18T14:28:31;0.60;68.60
64888;DHT22;51386;53.082;8.816;2022-12-18T14:30:58;0.60;68.40
64888;DHT22;51386;53.082;8.816;2022-12-18T14:33:27;0.60;68.30
64888;DHT22;51386;53.082;8.816;2022-12-18T14:35:57;0.60;68.10
64888;DHT22;51386;53.082;8.816;2022-12-18T14:38:29;0.70;68.10
64888;DHT22;51386;53.082;8.816;2022-12-18T14:41:00;0.70;68.00
64888;DHT22;51386;53.082;8.816;2022-12-18T14:43:31;0.70;67.90
64888;DHT22;51386;53.082;8.816;2022-12-18T14:46:00;0.70;67.60
64888;DHT22;51386;53.082;8.816;2022-12-18T14:48:36;0.70;67.50
64888;DHT22;51386;53.082;8.816;2022-12-18T14:51:06;0.70;67.60
64888;DHT22;51386;53.082;8.816;2022-12-18T14:53:44;0.80;67.50
64888;DHT22;51386;53.082;8.816;2022-12-18T14:56:23;0.70;67.40
64888;DHT22;51386;53.082;8.816;2022-12-18T14:58:54;0.70;67.30
64888;DHT22;51386;53.082;8.816;2022-12-18T15:01:26;0.70;67.20
64888;DHT22;51386;53.082;8.816;2022-12-18T15:03:57;0.70;67.10
64888;DHT22;51386;53.082;8.816;2022-12-18T15:06:31;0.60;66.90
64888;DHT22;51386;53.082;8.816;2022-12-18T15:09:01;0.60;67.10
64888;DHT22;51386;53.082;8.816;2022-12-18T15:11:44;0.50;67.00
64888;DHT22;51386;53.082;8.816;2022-12-18T15:14:32;0.60;67.10
64888;DHT22;51386;53.082;8.816;2022-12-18T15:17:03;0.50;66.80
64888;DHT22;51386;53.082;8.816;2022-12-18T15:19:37;0.50;66.80
64888;DHT22;51386;53.082;8.816;2022-12-18T15:22:20;0.50;66.70
64888;DHT22;51386;53.082;8.816;2022-12-18T15:24:49;0.50;66.60
64888;DHT22;51386;53.082;8.816;2022-12-18T15:27:33;0.50;66.60
64888;DHT22;51386;53.082;8.816;2022-12-18T15:30:20;0.50;66.30
64888;DHT22;51386;53.082;8.816;2022-12-18T15:32:49;0.50;66.30
64888;DHT22;51386;53.082;8.816;2022-12-18T15:35:20;0.50;66.10
64888;DHT22;51386;53.082;8.816;2022-12-18T15:37:49;0.40;66.00
64888;DHT22;51386;53.082;8.816;2022-12-18T15:40:19;0.50;65.90
64888;DHT22;51386;53.082;8.816;2022-12-18T15:42:52;0.50;65.90
64888;DHT22;51386;53.082;8.816;2022-12-18T15:45:39;0.50;65.70
64888;DHT22;51386;53.082;8.816;2022-12-18T15:48:15;0.50;65.20
64888;DHT22;51386;53.082;8.816;2022-12-18T15:50:48;0.50;65.20
64888;DHT22;51386;53.082;8.816;2022-12-18T15:53:17;0.60;65.20
64888;DHT22;51386;53.082;8.816;2022-12-18T15:55:45;0.50;64.60
64888;DHT22;51386;53.082;8.816;2022-12-18T15:58:32;0.60;64.60
64888;DHT22;51386;53.082;8.816;2022-12-18T16:01:00;0.60;64.20
64888;DHT22;51386;53.082;8.816;2022-12-18T16:03:28;0.70;64.20
64888;DHT22;51386;53.082;8.816;2022-12-18T16:05:55;0.70;64.10
64888;DHT22;51386;53.082;8.816;2022-12-18T16:08:26;0.60;63.70
64888;DHT22;51386;53.082;8.816;2022-12-18T16:10:53;0.70;63.70
64888;DHT22;51386;53.082;8.816;2022-12-18T16:13:22;0.70;63.50
64888;DHT22;51386;53.082;8.816;2022-12-18T16:16:09;0.70;63.30
64888;DHT22;51386;53.082;8.816;2022-12-18T16:18:36;0.70;63.20